KBFM/BFM METAR and TAF weather

Enter ICAO airport designator
Station Type Date Time Source
KBFM METAR 2018/07/16 23:53 UTC NOAA

KBFM 162353Z 31005KT 10SM FEW014 27/24 A3002 RMK AO2 SLP165 60210 T02670239 10300 20233 56016


Station Type Date Time Source
KBFM Decoded METAR 2018/07/16 23:53 UTC NOAA

MOBILE DOWNTOWN AIRPORT, AL, United States (KBFM) 30-38N 88-04W 20M
Jul 16, 2018 - 07:53 PM EDT / 2018.07.16 2353 UTC
Wind: from the NW (310 degrees) at 6 MPH (5 KT):0
Visibility: 10 mile(s):0
Sky conditions: mostly clear
Temperature: 80.1 F (26.7 C)
Dew Point: 75.0 F (23.9 C)
Relative Humidity: 84%
Pressure (altimeter): 30.02 in. Hg (1016 hPa)
Pressure tendency: 0.05 inches (1.6 hPa) lower than three hours ago
ob: KBFM 162353Z 31005KT 10SM FEW014 27/24 A3002 RMK AO2 SLP165 60210 T02670239 10300 20233 56016
cycle: 0

Station Type Date Time Source
KBFM TAF 2018/07/16 18:27 UTC NOAA

TAF KBFM 161725Z 1618/1718 07007KT P6SM VCTS SCT027CB BKN080 BKN150
TEMPO 1619/1623 VRB30KT 2SM TSRA BKN025CB
FM170200 23003KT P6SM SCT250
FM171200 29006KT P6SM VCSH SCT025 BKN250


Example: see airport list